Time;durP1;ratioP1;P1;durP2;ratioP2;P2;SDS_P1;SDS_P2;PMS_P1;PMS_P2;Temp;Humidity;BMP_temperature;BMP_pressure;BME280_temperature;BME280_humidity;BME280_pressure;Samples;Min_cycle;Max_cycle;Signal;HPM_P1;HPM_P2
2022/10/12 00:01:59;;;;;;;10.85;3.60;;;6.10;99.90;;;;;;5091995;28;20023;-48
2022/10/12 00:04:25;;;;;;;10.40;3.92;;;6.00;99.90;;;;;;5091681;28;20042;-49
2022/10/12 00:06:50;;;;;;;11.73;3.58;;;6.00;99.90;;;;;;5091851;28;20036;-49
2022/10/12 00:09:16;;;;;;;6.47;3.72;;;6.00;99.90;;;;;;5090768;28;20463;-47
2022/10/12 00:11:41;;;;;;;9.02;3.70;;;6.00;99.90;;;;;;5091895;28;20063;-48
2022/10/12 00:14:07;;;;;;;15.95;3.97;;;6.10;99.90;;;;;;5091365;28;20040;-49
2022/10/12 00:16:33;;;;;;;8.23;2.85;;;6.00;99.90;;;;;;5076509;28;20503;-50
2022/10/12 00:18:59;;;;;;;9.65;3.17;;;6.00;99.90;;;;;;5083334;28;20089;-48
2022/10/12 00:21:27;;;;;;;8.30;2.95;;;5.90;99.90;;;;;;5091496;28;20485;-51
2022/10/12 00:23:58;;;;;;;14.48;3.67;;;5.90;99.90;;;;;;5090002;28;20119;-50
2022/10/12 00:26:23;;;;;;;9.02;3.28;;;5.80;99.90;;;;;;5091718;28;20046;-50
2022/10/12 00:28:55;;;;;;;7.28;3.45;;;5.80;99.90;;;;;;5091631;28;20024;-50
2022/10/12 00:31:21;;;;;;;11.93;3.00;;;5.80;99.90;;;;;;5082957;28;20115;-50
2022/10/12 00:33:47;;;;;;;7.60;2.45;;;5.80;99.90;;;;;;5069495;28;20119;-50
2022/10/12 00:36:28;;;;;;;10.98;3.38;;;5.70;99.90;;;;;;5071149;28;20461;-50
2022/10/12 00:38:55;;;;;;;9.18;3.50;;;5.70;99.90;;;;;;5071455;28;20024;-48
2022/10/12 00:41:24;;;;;;;8.05;2.92;;;5.70;99.90;;;;;;5070599;28;20444;-48
2022/10/12 00:43:49;;;;;;;5.75;2.80;;;5.70;99.90;;;;;;5070909;28;20466;-51
2022/10/12 00:46:36;;;;;;;10.80;4.40;;;5.60;99.90;;;;;;5065779;28;20107;-48
2022/10/12 00:49:11;;;;;;;11.23;4.10;;;5.60;99.90;;;;;;5082828;28;20024;-48
2022/10/12 00:51:39;;;;;;;7.53;3.60;;;5.60;99.90;;;;;;5091224;28;20020;-47
2022/10/12 00:54:08;;;;;;;8.77;4.68;;;5.50;99.90;;;;;;5090629;28;20031;-50
2022/10/12 00:56:37;;;;;;;8.88;4.35;;;5.50;99.90;;;;;;5089821;28;20016;-50
2022/10/12 00:59:08;;;;;;;15.18;5.10;;;5.50;99.90;;;;;;5090831;28;20041;-49
2022/10/12 01:01:34;;;;;;;11.45;4.18;;;5.40;99.90;;;;;;5091416;28;20411;-51
2022/10/12 01:04:01;;;;;;;13.63;4.25;;;5.40;99.90;;;;;;5089361;28;20100;-48
2022/10/12 01:06:28;;;;;;;11.80;3.38;;;5.40;99.90;;;;;;5090802;28;20037;-49
2022/10/12 01:08:54;;;;;;;9.52;3.35;;;5.40;99.90;;;;;;5090922;28;20020;-47
2022/10/12 01:11:19;;;;;;;8.77;2.88;;;5.40;99.90;;;;;;5090676;28;20435;-50
2022/10/12 01:13:45;;;;;;;5.97;2.80;;;5.30;99.90;;;;;;5090128;28;20054;-50
2022/10/12 01:16:23;;;;;;;7.20;3.55;;;5.30;99.90;;;;;;5075610;28;20094;-50
2022/10/12 01:19:07;;;;;;;10.60;3.25;;;5.40;99.90;;;;;;5082214;28;20020;-50
2022/10/12 01:21:40;;;;;;;7.85;2.90;;;5.30;99.90;;;;;;5090713;28;20059;-48
2022/10/12 01:24:31;;;;;;;10.27;3.25;;;5.30;99.90;;;;;;5090448;28;20020;-50
2022/10/12 01:27:17;;;;;;;7.47;2.75;;;5.30;99.90;;;;;;5090609;28;20392;-49
2022/10/12 01:30:15;;;;;;;7.38;2.72;;;5.30;99.90;;;;;;5090355;28;20024;-48
2022/10/12 01:33:09;;;;;;;6.72;3.42;;;5.30;99.90;;;;;;5090093;28;20027;-47
2022/10/12 01:35:57;;;;;;;11.35;3.42;;;5.30;99.90;;;;;;5089818;28;20063;-47
2022/10/12 01:38:28;;;;;;;14.55;3.38;;;5.30;99.90;;;;;;5072842;28;20028;-47
2022/10/12 01:41:11;;;;;;;10.93;3.83;;;5.30;99.90;;;;;;5059133;28;20021;-50
2022/10/12 01:43:43;;;;;;;11.82;3.13;;;5.30;99.90;;;;;;5059418;28;20017;-48
2022/10/12 01:46:11;;;;;;;6.97;3.53;;;5.20;99.90;;;;;;5058614;28;20036;-48
2022/10/12 01:48:37;;;;;;;9.90;3.28;;;5.30;99.90;;;;;;5063499;28;20032;-49
2022/10/12 01:51:03;;;;;;;12.60;3.40;;;5.30;99.90;;;;;;5059876;28;20025;-49
2022/10/12 01:53:43;;;;;;;6.40;2.78;;;5.40;99.90;;;;;;5056209;28;20028;-48
2022/10/12 01:56:08;;;;;;;6.40;3.78;;;5.30;99.90;;;;;;5058108;28;20507;-47
2022/10/12 01:58:57;;;;;;;10.25;3.72;;;5.30;99.90;;;;;;5059597;28;20096;-49
2022/10/12 02:01:47;;;;;;;10.65;2.85;;;5.20;99.90;;;;;;5060170;28;20586;-50
2022/10/12 02:04:24;;;;;;;9.73;3.95;;;5.20;99.90;;;;;;5058370;28;20031;-47
2022/10/12 02:06:58;;;;;;;10.90;3.25;;;5.10;99.90;;;;;;5058174;28;20021;-47
2022/10/12 02:09:31;;;;;;;8.05;2.75;;;5.10;99.90;;;;;;5052333;28;20102;-47
2022/10/12 02:12:03;;;;;;;7.32;2.65;;;5.10;99.90;;;;;;5063580;28;20036;-47
2022/10/12 02:14:34;;;;;;;10.40;3.20;;;5.00;99.90;;;;;;5069420;28;20016;-47
2022/10/12 02:17:03;;;;;;;7.53;3.00;;;5.00;99.90;;;;;;5067185;28;20423;-50
2022/10/12 02:19:34;;;;;;;13.52;4.03;;;5.00;99.90;;;;;;5074536;28;20077;-46
2022/10/12 02:22:03;;;;;;;9.95;2.92;;;5.00;99.90;;;;;;5083657;28;20048;-47
2022/10/12 02:24:31;;;;;;;11.55;2.88;;;5.00;99.90;;;;;;5068929;28;20370;-49
2022/10/12 02:26:57;;;;;;;10.95;3.60;;;5.00;99.90;;;;;;5069538;28;20042;-49
2022/10/12 02:29:28;;;;;;;10.52;3.30;;;5.00;99.90;;;;;;5069363;28;20075;-47
2022/10/12 02:32:01;;;;;;;6.32;2.92;;;5.00;99.90;;;;;;5069805;28;20039;-51
2022/10/12 02:34:35;;;;;;;10.23;3.53;;;4.90;99.90;;;;;;5052840;28;20098;-47
2022/10/12 02:37:32;;;;;;;12.35;3.20;;;4.90;99.90;;;;;;5051704;28;20367;-51
2022/10/12 02:40:15;;;;;;;8.38;3.30;;;4.90;99.90;;;;;;5057390;28;20025;-47
2022/10/12 02:42:49;;;;;;;9.88;3.20;;;4.90;99.90;;;;;;5058533;28;20453;-47
2022/10/12 02:45:17;;;;;;;6.28;2.70;;;4.90;99.90;;;;;;5058474;28;20478;-47
2022/10/12 02:47:45;;;;;;;8.38;3.17;;;4.80;99.90;;;;;;5058514;28;20482;-48
2022/10/12 02:50:12;;;;;;;9.75;3.53;;;4.80;99.90;;;;;;5055912;28;20021;-47
2022/10/12 02:52:38;;;;;;;8.55;2.88;;;4.80;99.90;;;;;;5057575;28;20028;-49
2022/10/12 02:55:04;;;;;;;6.55;2.90;;;4.80;99.90;;;;;;5057240;28;20375;-49
2022/10/12 02:57:30;;;;;;;7.38;3.20;;;4.80;99.90;;;;;;5056721;28;20021;-47
2022/10/12 02:59:55;;;;;;;5.88;3.13;;;4.70;99.90;;;;;;5058599;28;20199;-49
2022/10/12 03:02:20;;;;;;;9.20;3.15;;;4.70;99.90;;;;;;5057759;28;20098;-48
2022/10/12 03:04:46;;;;;;;8.40;2.80;;;4.70;99.90;;;;;;5059980;28;20044;-47
2022/10/12 03:07:11;;;;;;;5.65;2.58;;;4.70;99.90;;;;;;5050897;28;20064;-47
2022/10/12 03:09:37;;;;;;;11.00;2.70;;;4.70;99.90;;;;;;5052291;28;20589;-49
2022/10/12 03:12:02;;;;;;;6.75;2.67;;;4.70;99.90;;;;;;5051921;28;20029;-51
2022/10/12 03:14:28;;;;;;;5.90;2.67;;;4.60;99.90;;;;;;5054761;28;20082;-49
2022/10/12 03:16:53;;;;;;;6.60;2.70;;;4.70;99.90;;;;;;5064794;28;20017;-50
2022/10/12 03:19:19;;;;;;;11.02;3.47;;;4.70;99.90;;;;;;5068626;28;20350;-48
2022/10/12 03:21:44;;;;;;;13.30;3.78;;;4.70;99.90;;;;;;5062640;28;20427;-50
2022/10/12 03:24:10;;;;;;;6.07;2.85;;;4.60;99.90;;;;;;5062126;28;20024;-49
2022/10/12 03:26:35;;;;;;;8.13;3.10;;;4.70;99.90;;;;;;5071413;28;20553;-50
2022/10/12 03:29:01;;;;;;;9.10;2.63;;;4.80;99.90;;;;;;5071642;28;20359;-51
2022/10/12 03:31:27;;;;;;;10.25;3.03;;;4.80;99.90;;;;;;5071773;28;20385;-48
2022/10/12 03:33:53;;;;;;;11.98;3.60;;;4.80;99.90;;;;;;5071408;28;20032;-50
2022/10/12 03:36:18;;;;;;;6.50;2.88;;;4.80;99.90;;;;;;5071175;28;20476;-48
2022/10/12 03:38:44;;;;;;;10.05;3.38;;;4.80;99.90;;;;;;5071314;28;20021;-48
2022/10/12 03:41:09;;;;;;;10.25;3.20;;;4.80;99.90;;;;;;5070415;28;20362;-48
2022/10/12 03:43:35;;;;;;;10.25;3.53;;;4.80;99.90;;;;;;5069280;28;20135;-50
2022/10/12 03:46:00;;;;;;;11.98;3.50;;;4.80;99.90;;;;;;5064506;28;20104;-48
2022/10/12 03:48:26;;;;;;;7.72;3.25;;;4.80;99.90;;;;;;5083532;28;20590;-48
2022/10/12 03:50:52;;;;;;;10.68;2.85;;;4.80;99.90;;;;;;5092085;28;20020;-48
2022/10/12 03:53:18;;;;;;;9.93;3.17;;;4.90;99.90;;;;;;5090285;28;20212;-48
2022/10/12 03:55:44;;;;;;;7.53;2.75;;;4.80;99.90;;;;;;5071331;28;20382;-50
2022/10/12 03:58:10;;;;;;;15.57;3.58;;;4.80;99.90;;;;;;5071409;28;20020;-49
2022/10/12 04:00:36;;;;;;;10.00;3.10;;;4.80;99.90;;;;;;5071939;28;20081;-49
2022/10/12 04:03:01;;;;;;;8.13;2.88;;;4.80;99.90;;;;;;5070965;28;20025;-49
2022/10/12 04:05:28;;;;;;;10.20;3.35;;;4.80;99.90;;;;;;5071120;28;20029;-50
2022/10/12 04:07:53;;;;;;;9.43;2.78;;;4.80;99.90;;;;;;5071058;28;20024;-48
2022/10/12 04:10:19;;;;;;;10.75;2.58;;;4.80;99.90;;;;;;5070986;28;20362;-50
2022/10/12 04:12:45;;;;;;;13.38;3.60;;;4.80;99.90;;;;;;5070208;28;20036;-49
2022/10/12 04:15:10;;;;;;;10.38;2.85;;;4.70;99.90;;;;;;5069344;28;20036;-48
2022/10/12 04:17:36;;;;;;;16.50;3.20;;;4.70;99.90;;;;;;5072695;28;20354;-49
2022/10/12 04:20:02;;;;;;;8.98;2.88;;;4.80;99.90;;;;;;5087792;28;20053;-48
2022/10/12 04:22:28;;;;;;;7.38;2.47;;;4.80;99.90;;;;;;5090588;28;20032;-49
2022/10/12 04:24:53;;;;;;;6.60;2.15;;;4.70;99.90;;;;;;5091298;28;20039;-51
2022/10/12 04:27:19;;;;;;;12.27;2.85;;;4.60;99.90;;;;;;5091034;28;20389;-50
2022/10/12 04:29:44;;;;;;;6.97;2.85;;;4.50;99.90;;;;;;5090907;28;20063;-50
2022/10/12 04:32:10;;;;;;;8.25;3.25;;;4.60;99.90;;;;;;5091080;28;20484;-51
2022/10/12 04:34:35;;;;;;;8.63;3.08;;;4.60;99.90;;;;;;5090423;28;20159;-52
2022/10/12 04:37:01;;;;;;;7.95;2.92;;;4.50;99.90;;;;;;5090811;28;20472;-50
2022/10/12 04:39:28;;;;;;;5.25;2.65;;;4.60;99.90;;;;;;5090869;28;20028;-48
2022/10/12 04:41:53;;;;;;;7.95;2.92;;;4.60;99.90;;;;;;5090302;28;20093;-49
2022/10/12 04:44:20;;;;;;;7.30;2.80;;;4.60;99.90;;;;;;5090456;28;20028;-51
2022/10/12 04:46:45;;;;;;;6.13;2.92;;;4.50;99.90;;;;;;5073964;28;20395;-48
2022/10/12 04:49:11;;;;;;;6.15;2.25;;;4.50;99.90;;;;;;5080937;28;20114;-48
2022/10/12 04:51:36;;;;;;;5.80;2.50;;;4.40;99.90;;;;;;5087303;28;20060;-50
2022/10/12 04:54:02;;;;;;;4.32;2.75;;;4.40;99.90;;;;;;5060272;28;20127;-49
2022/10/12 04:56:27;;;;;;;11.05;2.63;;;4.40;99.90;;;;;;5058825;28;20449;-51
2022/10/12 04:58:53;;;;;;;12.65;2.97;;;4.40;99.90;;;;;;5059486;28;20103;-49
2022/10/12 05:01:18;;;;;;;9.32;2.85;;;4.30;99.90;;;;;;5060402;28;20029;-48
2022/10/12 05:03:44;;;;;;;8.40;3.05;;;4.30;99.90;;;;;;5049609;28;20299;-51
2022/10/12 05:06:09;;;;;;;6.72;2.78;;;4.30;99.90;;;;;;5049839;28;20033;-50
2022/10/12 05:08:35;;;;;;;9.35;4.28;;;4.30;99.90;;;;;;5048509;28;20029;-47
2022/10/12 05:11:00;;;;;;;9.68;2.90;;;4.30;99.90;;;;;;5049559;28;20417;-48
2022/10/12 05:13:27;;;;;;;5.97;2.60;;;4.30;99.90;;;;;;5049175;28;20045;-49
2022/10/12 05:15:53;;;;;;;5.20;2.65;;;4.20;99.90;;;;;;5049790;28;20652;-49
2022/10/12 05:18:18;;;;;;;12.90;2.47;;;4.30;99.90;;;;;;5079527;28;20187;-47
2022/10/12 05:20:44;;;;;;;10.02;2.95;;;4.30;99.90;;;;;;5090098;28;20067;-47
2022/10/12 05:23:13;;;;;;;9.02;3.33;;;4.40;99.90;;;;;;5089350;28;20020;-47
2022/10/12 05:25:38;;;;;;;6.40;2.70;;;4.40;99.90;;;;;;5089525;28;20533;-46
2022/10/12 05:28:05;;;;;;;9.35;3.00;;;4.40;99.90;;;;;;5090851;28;20039;-47
2022/10/12 05:30:31;;;;;;;9.40;2.92;;;4.40;99.90;;;;;;5080044;28;20801;-48
2022/10/12 05:32:56;;;;;;;10.65;2.80;;;4.40;99.90;;;;;;5059473;28;20143;-48
2022/10/12 05:35:22;;;;;;;7.82;2.70;;;4.50;99.90;;;;;;5073289;28;20060;-45
2022/10/12 05:37:47;;;;;;;7.55;2.35;;;4.50;99.90;;;;;;5059253;28;20029;-46
2022/10/12 05:40:13;;;;;;;16.23;4.47;;;4.50;99.90;;;;;;5061505;28;20032;-48
2022/10/12 05:42:38;;;;;;;5.28;2.55;;;4.50;99.90;;;;;;5062719;28;20446;-49
2022/10/12 05:45:04;;;;;;;8.85;3.15;;;4.50;99.90;;;;;;5061728;28;20028;-46
2022/10/12 05:47:30;;;;;;;8.45;2.78;;;4.50;99.90;;;;;;5066622;28;20020;-47
2022/10/12 05:49:55;;;;;;;10.10;3.30;;;4.50;99.90;;;;;;5066517;28;20028;-47
2022/10/12 05:52:21;;;;;;;8.98;2.58;;;4.60;99.90;;;;;;5069470;28;20040;-47
2022/10/12 05:54:46;;;;;;;6.15;2.45;;;4.60;99.90;;;;;;5058178;28;20118;-47
2022/10/12 05:57:14;;;;;;;17.60;3.35;;;4.60;99.90;;;;;;5064581;28;20017;-47
2022/10/12 05:59:40;;;;;;;9.88;3.40;;;4.60;99.90;;;;;;5061282;28;20047;-46
2022/10/12 06:02:06;;;;;;;7.28;2.80;;;4.60;99.90;;;;;;5057165;28;20433;-47
2022/10/12 06:04:31;;;;;;;9.35;3.60;;;4.60;99.90;;;;;;5058679;28;20037;-46
2022/10/12 06:06:56;;;;;;;6.75;3.25;;;4.70;99.90;;;;;;5061451;28;20021;-47
2022/10/12 06:09:22;;;;;;;10.15;3.30;;;4.70;99.90;;;;;;5061695;28;20606;-47
2022/10/12 06:11:48;;;;;;;10.88;3.55;;;4.70;99.90;;;;;;5063875;28;20035;-46
2022/10/12 06:14:14;;;;;;;12.65;4.65;;;4.70;99.90;;;;;;5080538;28;20034;-47
2022/10/12 06:16:39;;;;;;;12.93;3.53;;;4.80;99.90;;;;;;5069140;28;20032;-46
2022/10/12 06:19:04;;;;;;;9.63;3.92;;;4.80;99.90;;;;;;5078541;28;20020;-46
2022/10/12 06:21:30;;;;;;;8.60;3.92;;;4.80;99.90;;;;;;5076027;28;20477;-47
2022/10/12 06:23:55;;;;;;;10.85;3.97;;;4.80;99.90;;;;;;5073956;28;20036;-46
2022/10/12 06:26:21;;;;;;;9.32;3.58;;;4.90;99.90;;;;;;5089956;28;20031;-49
2022/10/12 06:28:46;;;;;;;11.55;3.42;;;4.90;99.90;;;;;;5089077;28;20487;-47
2022/10/12 06:31:13;;;;;;;7.07;2.90;;;4.90;99.90;;;;;;5090513;28;20100;-49
2022/10/12 06:33:38;;;;;;;7.25;3.42;;;4.90;99.90;;;;;;5077239;28;20493;-49
2022/10/12 06:36:04;;;;;;;6.95;3.20;;;5.00;99.90;;;;;;5075249;28;20025;-46
2022/10/12 06:38:29;;;;;;;7.85;3.17;;;5.00;99.90;;;;;;5069660;28;20020;-49
2022/10/12 06:40:54;;;;;;;8.82;3.95;;;5.00;99.90;;;;;;5081793;28;20047;-50
2022/10/12 06:43:21;;;;;;;9.23;2.97;;;5.10;99.90;;;;;;5089428;28;20044;-48
2022/10/12 06:45:47;;;;;;;7.82;3.25;;;5.10;99.90;;;;;;5077458;28;20021;-47
2022/10/12 06:48:13;;;;;;;7.05;3.50;;;5.20;99.90;;;;;;5078360;28;20031;-48
2022/10/12 06:50:38;;;;;;;8.57;3.42;;;5.20;99.90;;;;;;5089055;28;20020;-47
2022/10/12 06:53:04;;;;;;;8.05;3.60;;;5.30;99.90;;;;;;5088028;28;20031;-48
2022/10/12 06:55:29;;;;;;;10.23;4.30;;;5.40;99.90;;;;;;5085124;28;20388;-47
2022/10/12 06:57:55;;;;;;;12.43;4.30;;;5.50;99.90;;;;;;5071606;28;20070;-47
2022/10/12 07:00:21;;;;;;;9.88;4.03;;;5.50;99.90;;;;;;5078352;28;20047;-47
2022/10/12 07:02:50;;;;;;;11.07;4.00;;;5.60;99.90;;;;;;5086505;28;20580;-47
2022/10/12 07:05:16;;;;;;;9.27;4.38;;;5.60;99.90;;;;;;5086780;28;20107;-53
2022/10/12 07:07:42;;;;;;;8.25;4.47;;;5.70;99.90;;;;;;5086799;28;20115;-46
2022/10/12 07:10:08;;;;;;;13.68;4.75;;;5.80;99.90;;;;;;5070857;28;20128;-48
2022/10/12 07:12:36;;;;;;;8.55;3.95;;;5.90;99.90;;;;;;5079161;28;20032;-49
2022/10/12 07:15:04;;;;;;;11.13;4.07;;;5.90;99.90;;;;;;5088039;28;20107;-47
2022/10/12 07:17:29;;;;;;;10.10;4.15;;;6.00;99.90;;;;;;5067284;28;20457;-48
2022/10/12 07:19:55;;;;;;;11.75;4.75;;;6.00;99.90;;;;;;5074007;28;20020;-46
2022/10/12 07:22:20;;;;;;;12.60;4.75;;;6.10;99.90;;;;;;5071662;28;20024;-48
2022/10/12 07:24:46;;;;;;;11.45;4.07;;;6.10;99.90;;;;;;5079009;28;20071;-47
2022/10/12 07:27:11;;;;;;;9.68;4.25;;;6.20;99.90;;;;;;5088578;28;20107;-49
2022/10/12 07:29:37;;;;;;;16.20;5.30;;;6.20;99.90;;;;;;5072910;28;20021;-49
2022/10/12 07:32:04;;;;;;;11.02;4.63;;;6.40;99.90;;;;;;5070698;28;20025;-47
2022/10/12 07:34:30;;;;;;;6.95;3.55;;;6.40;99.90;;;;;;5079288;28;20552;-48
2022/10/12 07:36:56;;;;;;;11.35;4.38;;;6.50;99.90;;;;;;5086581;28;20150;-50
2022/10/12 07:39:23;;;;;;;7.07;3.47;;;6.60;99.90;;;;;;5080308;28;20020;-48
2022/10/12 07:41:49;;;;;;;9.68;3.70;;;6.60;99.90;;;;;;5070100;28;20032;-47
2022/10/12 07:44:15;;;;;;;6.93;4.35;;;6.70;99.90;;;;;;5086024;28;20032;-49
2022/10/12 07:46:40;;;;;;;8.65;3.70;;;6.80;99.90;;;;;;5072641;28;20020;-47
2022/10/12 07:49:06;;;;;;;10.45;4.60;;;6.90;99.90;;;;;;5065303;28;20466;-47
2022/10/12 07:51:31;;;;;;;8.63;3.47;;;7.00;99.90;;;;;;5077344;28;20027;-47
2022/10/12 07:53:59;;;;;;;10.48;3.85;;;7.10;99.90;;;;;;5081393;28;20247;-48
2022/10/12 07:56:25;;;;;;;7.05;3.20;;;7.20;99.90;;;;;;5091598;28;20020;-50
2022/10/12 07:58:56;;;;;;;9.48;3.53;;;7.30;99.90;;;;;;5090038;28;20104;-48
2022/10/12 08:01:22;;;;;;;;;;;7.40;99.90;;;;;;5092172;28;20020;-50
2022/10/12 08:03:48;;;;;;;9.40;3.70;;;7.50;99.90;;;;;;5089372;28;19908;-47
2022/10/12 08:06:16;;;;;;;16.25;4.72;;;7.70;99.90;;;;;;5074148;28;20069;-47
2022/10/12 08:08:42;;;;;;;10.00;4.30;;;7.80;99.90;;;;;;5082914;28;20119;-46
2022/10/12 08:11:09;;;;;;;13.95;4.70;;;8.00;99.90;;;;;;5089947;28;20046;-48
2022/10/12 08:13:34;;;;;;;15.35;5.80;;;8.20;99.90;;;;;;5090537;28;20541;-47
2022/10/12 08:16:01;;;;;;;13.27;5.22;;;8.40;99.90;;;;;;5075709;28;20029;-48
2022/10/12 08:18:27;;;;;;;13.98;4.65;;;8.50;99.90;;;;;;5063134;28;20444;-47
2022/10/12 08:20:52;;;;;;;13.05;4.63;;;8.70;99.90;;;;;;5080683;28;20095;-48
2022/10/12 08:23:18;;;;;;;11.15;4.20;;;8.90;99.90;;;;;;5082309;28;20024;-51
2022/10/12 08:25:54;;;;;;;14.02;3.92;;;9.10;99.90;;;;;;5091000;28;20156;-47
2022/10/12 08:28:19;;;;;;;19.00;4.38;;;9.30;99.90;;;;;;5084922;28;20086;-48
2022/10/12 08:30:45;;;;;;;17.67;3.67;;;9.80;99.90;;;;;;5085100;28;20036;-48
2022/10/12 08:33:12;;;;;;;12.88;4.05;;;10.10;99.90;;;;;;5090324;28;20036;-47
2022/10/12 08:35:38;;;;;;;20.38;4.55;;;10.40;99.90;;;;;;5090677;28;20024;-48
2022/10/12 08:38:05;;;;;;;15.88;3.50;;;10.70;99.90;;;;;;5076798;28;20103;-47
2022/10/12 08:40:44;;;;;;;16.80;3.17;;;10.90;99.90;;;;;;5090596;28;20427;-47
2022/10/12 08:43:15;;;;;;;13.18;3.42;;;11.30;99.90;;;;;;5090146;28;20052;-51
2022/10/12 08:45:55;;;;;;;13.75;3.75;;;11.50;99.90;;;;;;5077387;28;20172;-49
2022/10/12 08:48:26;;;;;;;9.55;2.70;;;12.00;99.90;;;;;;5080939;28;20023;-51
2022/10/12 08:50:56;;;;;;;13.75;2.85;;;13.20;99.90;;;;;;5081000;28;20047;-51
2022/10/12 08:53:39;;;;;;;13.30;3.17;;;15.20;99.90;;;;;;5087623;28;20028;-50
2022/10/12 08:56:05;;;;;;;9.02;2.35;;;17.50;98.10;;;;;;5076240;28;20060;-50
2022/10/12 08:58:32;;;;;;;13.18;2.83;;;19.00;94.20;;;;;;5090387;28;20075;-49
2022/10/12 09:01:12;;;;;;;9.05;2.63;;;20.90;87.40;;;;;;5082423;28;20115;-49
2022/10/12 09:03:50;;;;;;;14.23;3.00;;;21.50;81.70;;;;;;5065992;28;20037;-48
2022/10/12 09:06:22;;;;;;;13.48;3.38;;;22.90;75.50;;;;;;5080137;28;20032;-49
2022/10/12 09:09:17;;;;;;;7.68;2.25;;;23.60;73.50;;;;;;5084948;28;20047;-48
2022/10/12 09:11:51;;;;;;;8.45;2.58;;;24.50;66.90;;;;;;5090165;28;20107;-49
2022/10/12 09:14:22;;;;;;;9.93;2.90;;;25.70;63.80;;;;;;5089801;28;20051;-48
2022/10/12 09:16:50;;;;;;;9.27;2.75;;;25.90;59.50;;;;;;5074366;28;20020;-48
2022/10/12 09:19:37;;;;;;;5.00;2.17;;;26.30;60.90;;;;;;5077197;28;20033;-49
2022/10/12 09:22:05;;;;;;;5.53;2.33;;;27.20;57.90;;;;;;5073267;28;20073;-50
2022/10/12 09:24:35;;;;;;;8.25;2.55;;;27.90;58.90;;;;;;5081966;28;20020;-49
2022/10/12 09:27:19;;;;;;;8.70;2.83;;;28.10;57.30;;;;;;5089779;28;20500;-49
2022/10/12 09:29:48;;;;;;;4.70;1.98;;;28.70;55.80;;;;;;5089925;28;20036;-49
2022/10/12 09:32:39;;;;;;;7.22;2.80;;;28.90;54.10;;;;;;5081841;28;20033;-50
2022/10/12 09:35:06;;;;;;;7.90;2.83;;;29.40;53.20;;;;;;5079490;28;20032;-49
2022/10/12 09:37:34;;;;;;;10.65;2.67;;;30.20;51.70;;;;;;5070499;28;20021;-48
2022/10/12 09:40:00;;;;;;;6.85;2.50;;;30.00;51.00;;;;;;5086090;28;20415;-49
2022/10/12 09:42:25;;;;;;;6.22;2.40;;;29.80;50.00;;;;;;5082256;28;20024;-50
2022/10/12 09:45:10;;;;;;;8.95;2.20;;;29.20;51.70;;;;;;5072687;28;20035;-49
2022/10/12 09:47:35;;;;;;;8.38;2.60;;;30.50;47.90;;;;;;5070645;28;20533;-49
2022/10/12 09:50:04;;;;;;;7.70;2.65;;;30.80;48.80;;;;;;5085841;28;20159;-48
2022/10/12 09:52:35;;;;;;;8.90;2.47;;;30.70;50.70;;;;;;5088870;28;20043;-49
2022/10/12 09:55:20;;;;;;;7.82;2.60;;;30.80;46.50;;;;;;5072292;28;20032;-49
2022/10/12 09:57:58;;;;;;;4.30;1.85;;;31.20;48.00;;;;;;5083644;28;20024;-50
2022/10/12 10:00:28;;;;;;;8.43;2.47;;;32.00;45.30;;;;;;5087863;28;20020;-50
2022/10/12 10:02:55;;;;;;;7.07;2.35;;;31.10;46.30;;;;;;5088614;28;20020;-49
2022/10/12 10:05:34;;;;;;;8.25;2.28;;;31.20;46.50;;;;;;5080462;28;20026;-48
2022/10/12 10:08:22;;;;;;;11.18;2.28;;;30.60;45.90;;;;;;5080700;28;20029;-50
2022/10/12 10:10:52;;;;;;;9.43;3.03;;;30.20;45.60;;;;;;5068942;28;20033;-51
2022/10/12 10:13:20;;;;;;;10.15;2.25;;;27.70;47.50;;;;;;5077529;28;20047;-49
2022/10/12 10:16:00;;;;;;;9.75;2.67;;;28.30;48.30;;;;;;5074354;28;20482;-49
2022/10/12 10:18:36;;;;;;;9.20;2.38;;;27.10;47.40;;;;;;5069235;28;20500;-48
2022/10/12 10:21:05;;;;;;;10.45;2.33;;;27.00;49.40;;;;;;5069088;28;20052;-49
2022/10/12 10:23:41;;;;;;;9.63;2.53;;;28.30;49.10;;;;;;5068257;28;20025;-48
2022/10/12 10:26:14;;;;;;;5.43;2.10;;;28.70;47.50;;;;;;5074862;28;20028;-51
2022/10/12 10:28:42;;;;;;;10.23;2.25;;;30.10;46.70;;;;;;5070594;28;20108;-49
2022/10/12 10:31:15;;;;;;;9.20;2.53;;;29.20;46.50;;;;;;5086256;28;20024;-49
2022/10/12 10:33:41;;;;;;;6.53;2.15;;;27.00;48.10;;;;;;5084200;28;20024;-49
2022/10/12 10:36:26;;;;;;;5.95;2.22;;;28.00;47.50;;;;;;5075225;28;20030;-50
2022/10/12 10:38:58;;;;;;;9.20;2.42;;;28.60;47.90;;;;;;5086118;28;20028;-49
2022/10/12 10:41:29;;;;;;;6.35;2.17;;;29.70;47.10;;;;;;5068835;28;20141;-49
2022/10/12 10:43:55;;;;;;;8.65;2.40;;;29.90;47.70;;;;;;5084472;28;20103;-49
2022/10/12 10:46:26;;;;;;;7.05;2.53;;;30.40;45.40;;;;;;5056810;28;20091;-53
2022/10/12 10:48:57;;;;;;;8.18;2.50;;;30.90;45.50;;;;;;5080153;28;20343;-48
2022/10/12 10:51:40;;;;;;;7.22;2.03;;;31.20;43.80;;;;;;5079465;28;20020;-51
2022/10/12 10:54:22;;;;;;;8.65;2.33;;;31.60;42.70;;;;;;5088067;28;20020;-51
2022/10/12 10:56:55;;;;;;;11.15;2.38;;;31.30;43.50;;;;;;5080849;28;20037;-51
2022/10/12 10:59:43;;;;;;;7.95;2.35;;;30.20;44.50;;;;;;5078783;28;20081;-48
2022/10/12 11:02:42;;;;;;;14.73;3.85;;;30.00;44.20;;;;;;5086342;28;20024;-50
2022/10/12 11:05:14;;;;;;;11.48;2.58;;;29.00;45.00;;;;;;5086083;28;20036;-49
2022/10/12 11:07:54;;;;;;;10.45;2.38;;;29.40;45.00;;;;;;5082912;28;20028;-51
2022/10/12 11:10:21;;;;;;;7.05;2.00;;;29.50;44.10;;;;;;5078444;28;20128;-50
2022/10/12 11:12:52;;;;;;;8.70;2.33;;;29.00;45.20;;;;;;5057219;28;20029;-51
2022/10/12 11:15:50;;;;;;;5.57;2.25;;;29.10;46.50;;;;;;5063807;28;20063;-51
2022/10/12 11:18:35;;;;;;;5.47;1.92;;;29.30;45.40;;;;;;5081462;28;20036;-50
2022/10/12 11:21:06;;;;;;;6.60;2.17;;;28.70;44.20;;;;;;5067560;28;20043;-52
2022/10/12 11:23:41;;;;;;;8.13;2.08;;;28.80;46.90;;;;;;5068309;28;20024;-50
2022/10/12 11:26:27;;;;;;;7.50;2.03;;;27.90;44.30;;;;;;5078139;28;20032;-49
2022/10/12 11:28:55;;;;;;;6.78;1.80;;;28.00;43.60;;;;;;5072091;28;20025;-51
2022/10/12 11:31:26;;;;;;;8.05;2.28;;;28.00;45.40;;;;;;5077567;28;20020;-49
2022/10/12 11:33:55;;;;;;;7.82;2.15;;;29.00;44.90;;;;;;5061292;28;20112;-49
2022/10/12 11:36:25;;;;;;;8.77;1.98;;;27.80;45.50;;;;;;5060120;28;20029;-49
2022/10/12 11:39:04;;;;;;;5.50;2.28;;;27.00;45.50;;;;;;5059931;28;20082;-52
2022/10/12 11:41:45;;;;;;;6.10;2.38;;;27.20;45.50;;;;;;5066648;28;20028;-49
2022/10/12 11:44:10;;;;;;;;;;;26.30;45.00;;;;;;5061584;28;20478;-51
2022/10/12 11:46:42;;;;;;;10.70;2.30;;;24.40;47.10;;;;;;5063088;28;19905;-48
2022/10/12 11:49:30;;;;;;;6.63;2.10;;;24.80;48.20;;;;;;5079259;28;20016;-48
2022/10/12 11:51:59;;;;;;;4.82;2.28;;;24.90;48.70;;;;;;5070941;28;21433;-48
2022/10/12 11:54:36;;;;;;;5.18;1.65;;;24.10;48.20;;;;;;5066564;28;20163;-50
2022/10/12 11:57:07;;;;;;;10.32;2.30;;;24.10;48.90;;;;;;5076065;28;20110;-49
2022/10/12 11:59:42;;;;;;;8.27;2.30;;;23.10;49.70;;;;;;5078658;28;20530;-57
2022/10/12 12:02:19;;;;;;;8.25;2.00;;;24.10;49.70;;;;;;5055031;28;20031;-49
2022/10/12 12:04:47;;;;;;;5.22;2.10;;;24.60;49.20;;;;;;5062210;28;20032;-48
2022/10/12 12:07:37;;;;;;;10.85;2.47;;;25.70;47.30;;;;;;5071866;28;20067;-49
2022/10/12 12:10:33;;;;;;;7.85;1.90;;;24.30;49.30;;;;;;5074132;28;20115;-48
2022/10/12 12:13:16;;;;;;;6.63;2.30;;;24.70;49.00;;;;;;5060433;28;20044;-47
2022/10/12 12:15:45;;;;;;;10.35;2.15;;;23.10;50.50;;;;;;5052479;28;20025;-50
2022/10/12 12:18:18;;;;;;;8.23;1.90;;;23.30;51.70;;;;;;5060976;28;20417;-49
2022/10/12 12:20:44;;;;;;;7.75;2.17;;;22.80;52.10;;;;;;5081967;28;20052;-49
2022/10/12 12:23:31;;;;;;;12.07;2.45;;;22.60;51.30;;;;;;5081289;28;20061;-51
2022/10/12 12:26:09;;;;;;;9.60;2.20;;;22.90;52.60;;;;;;5074738;28;20478;-49
2022/10/12 12:28:48;;;;;;;10.93;2.17;;;22.30;54.70;;;;;;5058497;28;20048;-51
2022/10/12 12:31:27;;;;;;;7.82;2.17;;;22.60;53.40;;;;;;5081966;28;20107;-50
2022/10/12 12:34:12;;;;;;;8.32;2.47;;;23.00;53.10;;;;;;5089957;28;20071;-50
2022/10/12 12:36:44;;;;;;;7.57;2.70;;;23.40;53.10;;;;;;5089279;28;20036;-50
2022/10/12 12:39:29;;;;;;;9.82;2.38;;;23.20;51.80;;;;;;5088434;28;20012;-48
2022/10/12 12:41:58;;;;;;;6.63;2.05;;;23.10;51.70;;;;;;5076728;28;20025;-51
2022/10/12 12:44:43;;;;;;;9.68;2.30;;;22.50;56.80;;;;;;5090211;28;20366;-49
2022/10/12 12:47:09;;;;;;;11.05;2.20;;;22.70;52.90;;;;;;5073275;28;20024;-48
2022/10/12 12:49:49;;;;;;;10.32;2.05;;;22.60;54.30;;;;;;5082721;28;20599;-49
2022/10/12 12:52:27;;;;;;;15.77;3.10;;;22.80;53.40;;;;;;5066989;28;20028;-49
2022/10/12 12:55:31;;;;;;;9.05;2.42;;;21.40;53.80;;;;;;5080420;28;20243;-48
2022/10/12 12:58:34;;;;;;;11.40;2.78;;;21.20;58.60;;;;;;5090696;28;20150;-53
2022/10/12 13:01:38;;;;;;;12.23;2.33;;;21.50;58.60;;;;;;5089316;28;20028;-51
2022/10/12 13:04:24;;;;;;;7.38;2.50;;;21.90;56.40;;;;;;5079646;28;20013;-51
2022/10/12 13:07:31;;;;;;;11.52;3.28;;;21.60;55.60;;;;;;5090196;28;20081;-50
2022/10/12 13:10:05;;;;;;;14.55;2.55;;;21.20;57.70;;;;;;5076863;28;20028;-49